Accueil
METAR-TAF:

METAR-TAF

Aéroports :

Exeter, Angleterre

Aéroport international d'Exeter

latitude: 50-44N, longitude: 003-25W, altitude: 30 m

Observation

Le bulletin a été fait il y a 22 minutes, à 01:20 UTC
Vent 7 kt de sud/sud-ouest
Température 16°C
Humidité 88%
Pression 1016 hPa
Visibilité 10 km ou plus
Nuages fragmentés à une hauteur de 1500 ft

METAR: EGTE 240120Z 21007KT 9999 BKN015 16/14 Q1016

Heure: 02:42 (01:42 UTC)

Prévision

Le bulletin a été fait il y a 5 heures et 45 minutes, à 19:57 UTC
Prévision valable du 23 à 21 UTC au 24 à 01 UTC
Vent 8 kt de sud-ouest
Visibilité 10 km ou plus
Nuages épars à une hauteur de 2000 ft
Evoluant progressivement
du 23 à 21 UTC au 23 à 24 UTC
Nuages fragmentés à une hauteur de 1400 ft
Probabilité 30% :
Temporairement
du 24 à 00 UTC au 24 à 01 UTC
Visibilité: 8000 m
pluie faible, bruine

TAF: EGTE 231957Z 2321/2401 23008KT 9999 SCT020 BECMG 2321/2324 BKN014 PROB30 TEMPO 2400/2401 8000 -RADZ

Observations et prévisions météorologiques de plus de 4000 aéroports (messages METAR et TAF).

Les stations disponibles sont représentées par des disques jaunes et rouges sur la carte.

Passer la souris dessus pour voir le nom de la station.

Cliquer dessus pour voir les observations et prévisions météorologiques.

Pour changer de carte: cliquez sur les boutons verts avec une croix noire pour zoomer, sur le bouton vert avec un tiret pour effectuer un zoom arrière, ou sur les flèches vertes pour les cartes adjacentes.


METAR-TAF: